Aviation Digital Data Service (ADDS)

Output produced by METARs form (0507 UTC 21 January 2019)
found at http://www.aviationweather.gov/metar/data/
 
Forecast for: UHHH (KHABAROVSK/NOVY , RU)
Text: TAF UHHH 210145Z 2103/2209 23006MPS 9999 SCT030
Forecast period: 0300 UTC 21 January 2019 to 0900 UTC 22 January 2019
Forecast type: FROM: standard forecast or significant change
Winds: from the SW (230 degrees) at 14 MPH (12 knots; 6.2 m/s)
Visibility: 6 or more miles 10+ km)
Ceiling: at least 12,000 feet AGL
Clouds: scattered clouds at 3000 feet AGL
Weather: no significant weather forecast for this period